Paradise, Pennsylvania
Current Conditions -  °F | °C
As of 8:53 PM on Wednesday 17 Dec 2014 (Local Time) from KLNS Reporting Station
Scattered Clouds Scattered Clouds  
Wind Chill: 28°   Ceiling: Unl
Heat Index: 36°   Visibility: 10mi
Dew Point: 23°   Wind: 12mph
Humidity: 59%   Direction: 310°NW
Pressure: 30"   Gusts: NA
Location:  40.01°N, 76.12°W
Report Text: KLNS 180153Z 31010KT 10SM SCT048 02/M05 A3000 RMK AO2 SLP163 T00221050
Loading
Personal Weather Stations






























Interactive Weather Map New forecast layout! Learn more

10-Day Weather Forecast

Advertisements
Track Severe Weather on mobile